Folk, Missouri
Current Conditions -  °F | °C
As of 5:53 AM on Saturday 01 Nov 2014 (Local Time) from KJEF Reporting Station
Clear Clear  
Wind Chill: 22°   Ceiling: Unl
Heat Index: 29°   Visibility: 10mi
Dew Point: 22°   Wind: 7mph
Humidity: 75%   Direction: 360°N
Pressure: 30.47"   Gusts: NA
Location:  38.4046°N, 92.0758°W
Report Text: KJEF 011053Z 36006KT 10SM CLR M02/M06 A3047 RMK AO2 SLP313 T10171056
Loading
Personal Weather Stations






























Interactive Weather Map
Tropical Storm Tracking
New forecast layout! Learn more

10-Day Weather Forecast

Advertisements
Track Severe Weather on mobile